Current | Forecast
Updated: 9:00 PM JST on June 29, 2017
Observed at Kagoshima Airport, Japan
Temperature 77°F
Humidity 89%
Dew Point 73°F
Wind South at 4 mph
Pressure 29.95 in (Rising)
Conditions Scattered Clouds
Visibility 6.2 miles
UV 0 out of 16
Clouds (FEW) : 2000 ft
Scattered Clouds (SCT) : 6000 ft
Yesterday's Maximum 79°F
Yesterday's Minimum 70°F approx.
Yesterday's Cooling Degree Days 9 approx.
Sunrise5:15 AM JST
Sunset7:29 PM JST
Moon Rise10:34 AM JST
Moon Set11:31 PM JST
Moon PhaseMoon Phase
Waxing Crescent
Raw METARMETAR RJFK 291200Z 19003KT 160V220 9999 FEW020 SCT060 25/23 Q1014 RMK 1CU020 4SC060 A2995


Monday
. High: 71° F.
Tuesday
. High: 71° F.
Wednesday
. High: 71° F.
Thursday
. High: 71° F.
Friday
. High: 69° F.
Saturday
. High: 73° F.
Sunday
. High: 75° F.
Monday
. High: 77° F.

Units: English | Metric

Find the Weather for any City, State or Zipcode, or Country:

U.S. State List | Severe Weather | Tropical Storms | Ski Conditions
United States | Canada | Central America | South America | Asia | Europe | Australia | Africa | Islands

Weather Underground

© Copyright 2017
The Weather Company, LLC